METAR Data
IDs: Format: Raw Decoded Include TAF

Data at: 2153 UTC 25 Apr 2019

KOUN 252145Z 31019G25KT 10SM CLR 26/12 A2988